createdAt,value
2018-03-28T00:01:27.319Z,89.94
2018-03-28T00:03:55.613Z,90.12
2018-03-28T00:06:23.866Z,90.21
2018-03-28T00:08:52.144Z,90.47
2018-03-28T00:11:20.410Z,90.62
2018-03-28T00:13:48.692Z,89.99
2018-03-28T00:16:16.961Z,90.27
2018-03-28T00:18:45.251Z,90.62
2018-03-28T00:23:51.366Z,90.70
2018-03-28T00:39:09.423Z,92.50
2018-03-28T00:41:37.703Z,92.88
2018-03-28T00:44:06.024Z,92.99
2018-03-28T00:46:36.115Z,93.59
2018-03-28T00:49:04.598Z,93.38
2018-03-28T00:51:37.748Z,93.45
2018-03-28T00:54:06.079Z,94.12
2018-03-28T00:56:34.346Z,94.30
2018-03-28T00:59:02.680Z,94.60
2018-03-28T01:01:31.712Z,94.55
2018-03-28T01:03:59.997Z,94.63
2018-03-28T01:06:28.331Z,94.75
2018-03-28T01:08:56.822Z,94.83
2018-03-28T01:11:25.119Z,94.77
2018-03-28T01:13:53.359Z,94.78
2018-03-28T01:16:21.636Z,95.00
2018-03-28T01:18:49.903Z,94.96
2018-03-28T01:21:18.155Z,95.16
2018-03-28T01:23:47.203Z,95.36
2018-03-28T01:26:15.478Z,95.17
2018-03-28T01:28:43.746Z,95.03
2018-03-28T01:31:12.002Z,95.11
2018-03-28T01:33:40.285Z,95.33
2018-03-28T01:36:08.551Z,95.72
2018-03-28T01:38:36.824Z,95.51
2018-03-28T01:41:05.193Z,95.20
2018-03-28T01:43:34.219Z,94.87
2018-03-28T01:46:03.458Z,94.99
2018-03-28T01:48:31.742Z,95.12
2018-03-28T01:50:59.997Z,95.30
2018-03-28T01:53:28.329Z,95.33
2018-03-28T01:55:56.639Z,95.60
2018-03-28T01:58:24.945Z,95.75
2018-03-28T02:00:53.213Z,95.52
2018-03-28T02:03:21.490Z,96.04
2018-03-28T02:05:49.780Z,95.84
2018-03-28T02:08:18.917Z,95.83
2018-03-28T02:10:47.211Z,95.78
2018-03-28T02:13:15.472Z,95.96
2018-03-28T02:15:43.756Z,95.77
2018-03-28T02:18:12.040Z,95.78
2018-03-28T02:20:40.401Z,95.66
2018-03-28T02:23:08.698Z,95.87
2018-03-28T02:25:36.951Z,95.73
2018-03-28T02:28:05.402Z,95.58
2018-03-28T02:30:33.652Z,95.55
2018-03-28T02:33:02.698Z,96.06
2018-03-28T02:35:30.970Z,95.87
2018-03-28T02:37:59.352Z,95.97
2018-03-28T02:40:27.610Z,96.33
2018-03-28T02:42:55.922Z,96.53
2018-03-28T02:45:24.859Z,96.37
2018-03-28T02:47:53.155Z,96.42
2018-03-28T02:50:21.433Z,96.45
2018-03-28T02:52:49.795Z,96.63
2018-03-28T02:55:18.082Z,96.65
2018-03-28T02:57:46.345Z,96.38
2018-03-28T03:00:14.612Z,96.14
2018-03-28T03:02:42.892Z,95.99
2018-03-28T03:05:11.162Z,96.05
2018-03-28T03:07:39.416Z,96.41
2018-03-28T03:10:08.539Z,96.02
2018-03-28T03:12:36.821Z,95.96
2018-03-28T03:15:05.276Z,96.01
2018-03-28T03:17:34.322Z,96.21
2018-03-28T03:20:02.583Z,96.33
2018-03-28T03:22:30.889Z,96.32
2018-03-28T03:24:59.169Z,96.42
2018-03-28T03:27:27.468Z,96.55
2018-03-28T03:29:56.500Z,96.81
2018-03-28T03:32:24.770Z,96.57
2018-03-28T03:34:53.034Z,96.46
2018-03-28T03:37:21.334Z,96.55
2018-03-28T03:39:49.890Z,96.33
2018-03-28T03:42:18.172Z,96.05
2018-03-28T03:44:46.432Z,96.28
2018-03-28T03:47:14.721Z,96.38
2018-03-28T03:49:42.971Z,96.34
2018-03-28T03:52:11.251Z,95.98
2018-03-28T03:54:39.576Z,95.89
2018-03-28T03:57:08.614Z,95.99
2018-03-28T03:59:37.680Z,96.11
2018-03-28T04:02:05.968Z,96.16
2018-03-28T04:04:34.983Z,96.33
2018-03-28T04:07:04.011Z,96.56
2018-03-28T04:09:32.285Z,96.32
2018-03-28T04:12:00.585Z,96.38
2018-03-28T04:14:28.887Z,96.14
2018-03-28T04:16:57.917Z,96.13
2018-03-28T04:19:26.199Z,96.56
2018-03-28T04:21:54.499Z,96.44
2018-03-28T04:24:22.875Z,96.44
2018-03-28T04:26:51.137Z,96.45
2018-03-28T04:29:19.400Z,96.24
2018-03-28T04:31:47.655Z,96.12
2018-03-28T04:34:15.930Z,96.12
2018-03-28T04:36:44.184Z,96.07
2018-03-28T04:39:13.295Z,96.18
2018-03-28T04:41:41.597Z,96.47
2018-03-28T04:44:09.851Z,96.40
2018-03-28T04:46:38.297Z,96.47
2018-03-28T04:49:06.546Z,96.25
2018-03-28T04:51:34.814Z,96.53
2018-03-28T04:54:03.134Z,96.57
2018-03-28T04:56:32.156Z,96.30
2018-03-28T04:59:00.548Z,95.87
2018-03-28T05:01:28.910Z,95.63
2018-03-28T05:03:57.175Z,95.28
2018-03-28T05:06:25.430Z,94.60
2018-03-28T05:08:54.561Z,94.53
2018-03-28T05:11:22.811Z,94.67
2018-03-28T05:13:51.090Z,94.40
2018-03-28T05:16:19.441Z,94.30
2018-03-28T05:18:52.856Z,94.59
2018-03-28T05:21:21.115Z,94.53
2018-03-28T05:23:50.175Z,94.28
2018-03-28T05:26:18.572Z,94.29
2018-03-28T05:28:47.007Z,93.55
2018-03-28T05:31:15.306Z,92.73
2018-03-28T05:33:43.554Z,92.54
2018-03-28T05:36:11.928Z,92.59
2018-03-28T05:38:40.206Z,92.22
2018-03-28T05:41:08.466Z,92.12
2018-03-28T05:43:36.755Z,91.94
2018-03-28T05:46:05.035Z,91.90
2018-03-28T05:48:34.085Z,91.56
2018-03-28T05:51:03.223Z,91.29
2018-03-28T05:53:31.629Z,91.12
2018-03-28T05:55:59.934Z,91.08
2018-03-28T05:58:28.978Z,91.24
2018-03-28T06:00:57.267Z,91.39
2018-03-28T06:03:25.529Z,91.32
2018-03-28T06:05:53.968Z,91.25
2018-03-28T06:08:23.158Z,91.14
2018-03-28T06:10:51.676Z,90.75
2018-03-28T06:13:19.939Z,90.76
2018-03-28T06:15:48.328Z,90.63
2018-03-28T06:18:16.776Z,90.39
2018-03-28T06:20:45.061Z,90.25
2018-03-28T06:23:14.083Z,89.65
2018-03-28T06:25:42.414Z,89.72
2018-03-28T06:28:11.470Z,89.69
2018-03-28T06:30:39.825Z,88.98
2018-03-28T06:33:08.080Z,88.93
2018-03-28T06:35:36.334Z,89.05
2018-03-28T06:38:05.402Z,88.95
2018-03-28T06:40:33.669Z,88.75
2018-03-28T06:43:01.940Z,87.81
2018-03-28T06:45:30.247Z,87.83
2018-03-28T06:47:58.507Z,87.97
2018-03-28T06:50:26.792Z,87.42
2018-03-28T06:52:55.975Z,86.61
2018-03-28T06:55:25.354Z,86.29
2018-03-28T06:57:53.664Z,85.10
2018-03-28T07:00:22.705Z,84.53
2018-03-28T07:02:50.978Z,82.96
2018-03-28T07:05:19.256Z,83.48
2018-03-28T07:07:47.570Z,81.36
2018-03-28T07:10:16.018Z,80.63
2018-03-28T07:12:44.976Z,80.54
2018-03-28T07:15:13.307Z,80.40
2018-03-28T07:17:41.604Z,80.50
2018-03-28T07:20:10.082Z,80.12
2018-03-28T07:22:39.140Z,79.86
2018-03-28T07:25:07.715Z,79.44
2018-03-28T07:27:36.079Z,79.32
2018-03-28T07:30:04.525Z,80.70
2018-03-28T07:32:33.560Z,79.20
2018-03-28T07:35:01.933Z,78.08
2018-03-28T07:37:30.208Z,75.47
2018-03-28T07:39:58.669Z,74.28
2018-03-28T07:42:27.009Z,71.76
2018-03-28T07:44:55.301Z,71.58
2018-03-28T07:47:24.518Z,70.06
2018-03-28T07:49:52.810Z,70.18
2018-03-28T07:52:21.105Z,70.27
2018-03-28T07:54:49.418Z,69.25
2018-03-28T07:57:18.456Z,68.71
2018-03-28T07:59:46.745Z,69.91
2018-03-28T08:02:15.026Z,67.57
2018-03-28T08:04:43.386Z,66.60
2018-03-28T08:07:11.698Z,66.05
2018-03-28T08:09:40.946Z,67.12
2018-03-28T08:12:09.491Z,66.23
2018-03-28T08:14:38.750Z,66.46
2018-03-28T08:17:07.024Z,66.84
2018-03-28T08:19:35.297Z,63.56
2018-03-28T08:22:03.748Z,63.62
2018-03-28T08:24:32.122Z,63.63
2018-03-28T08:27:00.424Z,61.91
2018-03-28T08:29:28.696Z,62.50
2018-03-28T08:31:57.002Z,60.79
2018-03-28T08:34:25.353Z,62.02
2018-03-28T08:36:53.682Z,60.81
2018-03-28T08:39:22.129Z,61.55
2018-03-28T08:41:50.412Z,60.45
2018-03-28T08:44:18.783Z,62.29
2018-03-28T08:46:47.126Z,61.91
2018-03-28T08:49:15.407Z,60.74
2018-03-28T08:51:43.699Z,60.91
2018-03-28T08:54:12.034Z,62.44
2018-03-28T08:56:40.296Z,61.16
2018-03-28T08:59:09.356Z,61.93
2018-03-28T09:01:37.620Z,62.29
2018-03-28T09:04:06.039Z,61.39
2018-03-28T09:06:35.069Z,61.70
2018-03-28T09:09:03.345Z,61.90
2018-03-28T09:11:31.654Z,61.85
2018-03-28T09:13:59.908Z,61.83
2018-03-28T09:16:28.251Z,62.29
2018-03-28T09:18:56.633Z,61.26
2018-03-28T09:21:24.920Z,62.05
2018-03-28T09:23:53.296Z,61.31
2018-03-28T09:26:21.604Z,62.21
2018-03-28T09:28:50.189Z,62.32
2018-03-28T09:31:18.444Z,61.34
2018-03-28T09:33:46.712Z,60.32
2018-03-28T09:36:15.008Z,60.00
2018-03-28T09:38:43.528Z,60.02
2018-03-28T09:41:12.585Z,60.01
2018-03-28T09:43:40.887Z,59.53
2018-03-28T09:46:09.215Z,60.10
2018-03-28T09:48:37.493Z,59.95
2018-03-28T09:51:05.851Z,60.54
2018-03-28T09:53:34.112Z,60.51
2018-03-28T09:56:02.537Z,60.49
2018-03-28T09:58:30.798Z,60.85
2018-03-28T10:01:04.726Z,60.02
2018-03-28T10:03:33.006Z,60.41
2018-03-28T10:06:01.292Z,60.45
2018-03-28T10:08:29.546Z,59.91
2018-03-28T10:10:57.810Z,58.83
2018-03-28T10:13:26.075Z,59.34
2018-03-28T10:15:54.392Z,58.99
2018-03-28T10:18:22.645Z,58.00
2018-03-28T10:20:50.915Z,58.24
2018-03-28T10:23:19.737Z,57.59
2018-03-28T10:25:48.935Z,55.95
2018-03-28T10:28:18.088Z,56.68
2018-03-28T10:30:46.387Z,56.75
2018-03-28T10:33:14.934Z,56.42
2018-03-28T10:35:43.776Z,55.21
2018-03-28T10:38:14.040Z,55.21
2018-03-28T10:40:42.375Z,55.82
2018-03-28T10:43:11.423Z,55.12
2018-03-28T10:45:39.676Z,55.61
2018-03-28T10:48:07.935Z,54.48
2018-03-28T10:50:36.194Z,55.30
2018-03-28T10:53:05.428Z,52.28
2018-03-28T10:55:33.807Z,51.10
2018-03-28T10:58:02.083Z,50.58
2018-03-28T11:00:30.367Z,50.21
2018-03-28T11:02:58.680Z,51.04
2018-03-28T11:05:27.964Z,50.60
2018-03-28T11:07:56.233Z,51.27
2018-03-28T11:10:24.503Z,53.69
2018-03-28T11:12:53.652Z,53.62
2018-03-28T11:15:21.926Z,54.00
2018-03-28T11:17:50.979Z,53.36
2018-03-28T11:20:19.249Z,52.57
2018-03-28T11:22:47.523Z,52.12
2018-03-28T11:25:15.876Z,52.01
2018-03-28T11:27:44.208Z,48.77
2018-03-28T11:30:13.304Z,46.16
2018-03-28T11:32:42.450Z,44.11
2018-03-28T11:35:10.780Z,41.93
2018-03-28T11:37:39.795Z,42.13
2018-03-28T11:40:08.070Z,41.77
2018-03-28T11:42:36.319Z,41.36
2018-03-28T11:45:05.403Z,43.06
2018-03-28T11:47:33.709Z,44.34
2018-03-28T11:50:01.969Z,45.33
2018-03-28T11:52:31.057Z,46.80
2018-03-28T11:54:59.419Z,46.24
2018-03-28T11:57:27.851Z,48.43
2018-03-28T11:59:56.144Z,49.77
2018-03-28T12:02:24.431Z,50.74
2018-03-28T12:04:52.725Z,52.50
2018-03-28T12:07:21.005Z,53.40
2018-03-28T12:09:49.293Z,53.96
2018-03-28T12:12:18.385Z,54.92
2018-03-28T12:14:47.630Z,53.88
2018-03-28T12:17:15.899Z,54.55
2018-03-28T12:19:44.319Z,54.57
2018-03-28T12:22:12.634Z,54.60
2018-03-28T12:24:41.664Z,56.46
2018-03-28T12:29:44.601Z,57.07
2018-03-28T12:32:13.886Z,58.36
2018-03-28T12:34:42.963Z,58.41
2018-03-28T12:37:11.254Z,58.63
2018-03-28T12:39:39.627Z,59.00
2018-03-28T12:42:07.949Z,59.09
2018-03-28T12:44:37.165Z,59.92
2018-03-28T12:47:05.532Z,62.01
2018-03-28T12:49:33.947Z,64.17
2018-03-28T12:52:02.268Z,67.53
2018-03-28T12:54:30.733Z,68.93
2018-03-28T12:56:59.022Z,70.43
2018-03-28T12:59:27.283Z,72.37
2018-03-28T13:01:56.513Z,74.63
2018-03-28T13:04:25.420Z,75.15
2018-03-28T13:06:53.857Z,77.02
2018-03-28T13:09:22.330Z,78.42
2018-03-28T13:11:51.533Z,80.14
2018-03-28T13:14:20.583Z,80.38
2018-03-28T13:16:49.035Z,79.37
2018-03-28T13:19:17.307Z,80.64
2018-03-28T13:21:45.584Z,81.68
2018-03-28T13:24:14.678Z,81.04
2018-03-28T13:26:42.993Z,81.63
2018-03-28T13:29:11.264Z,81.61
2018-03-28T13:31:39.562Z,82.09
2018-03-28T13:34:08.627Z,82.84
2018-03-28T13:36:36.893Z,83.07
2018-03-28T13:39:05.220Z,82.70
2018-03-28T13:41:34.259Z,83.53
2018-03-28T13:44:02.560Z,85.11
2018-03-28T13:46:30.887Z,84.78
2018-03-28T13:48:59.218Z,84.32
2018-03-28T13:51:27.555Z,85.04
2018-03-28T13:53:55.831Z,85.00
2018-03-28T13:56:24.580Z,85.26
2018-03-28T13:58:53.844Z,85.04
2018-03-28T14:01:22.191Z,84.45
2018-03-28T14:03:50.469Z,85.13
2018-03-28T14:06:18.788Z,84.33
2018-03-28T14:08:47.300Z,84.72
2018-03-28T14:11:16.396Z,83.50
2018-03-28T14:13:44.990Z,83.65
2018-03-28T14:16:13.282Z,84.04
2018-03-28T14:18:41.666Z,82.93
2018-03-28T14:21:10.035Z,82.72
2018-03-28T14:23:38.358Z,83.66
2018-03-28T14:26:06.680Z,84.32
2018-03-28T14:28:35.028Z,82.47
2018-03-28T14:31:03.364Z,82.73
2018-03-28T14:33:31.736Z,83.11
2018-03-28T14:36:00.195Z,84.07
2018-03-28T14:38:28.582Z,83.16
2018-03-28T14:40:56.929Z,84.16
2018-03-28T14:43:25.255Z,84.54
2018-03-28T14:45:53.591Z,84.52
2018-03-28T14:48:22.629Z,84.16
2018-03-28T14:50:51.074Z,83.47
2018-03-28T14:53:19.408Z,83.61
2018-03-28T14:55:47.818Z,84.27
2018-03-28T14:58:16.109Z,83.12
2018-03-28T15:00:44.456Z,83.70
2018-03-28T15:03:12.764Z,83.97
2018-03-28T15:05:41.218Z,83.35
2018-03-28T15:08:09.543Z,83.97
2018-03-28T15:10:38.067Z,83.84
2018-03-28T15:13:06.401Z,83.32
2018-03-28T15:15:34.639Z,84.68
2018-03-28T15:18:03.020Z,84.92
2018-03-28T15:20:31.328Z,85.37
2018-03-28T15:22:59.662Z,85.57
2018-03-28T15:25:27.923Z,85.57
2018-03-28T15:27:56.655Z,86.53
2018-03-28T15:30:25.027Z,86.60
2018-03-28T15:32:53.339Z,86.39
2018-03-28T15:35:22.391Z,86.87
2018-03-28T15:37:50.656Z,86.78
2018-03-28T15:40:18.943Z,87.09
2018-03-28T15:42:47.269Z,87.88
2018-03-28T15:45:16.313Z,88.26
2018-03-28T15:47:44.603Z,89.00
2018-03-28T15:50:20.214Z,89.04
2018-03-28T15:52:48.602Z,89.07
2018-03-28T15:55:16.864Z,89.09
2018-03-28T15:57:45.168Z,89.31
2018-03-28T16:00:13.445Z,89.85
2018-03-28T16:02:41.725Z,90.07
2018-03-28T16:05:09.992Z,90.28
2018-03-28T16:07:38.273Z,90.28
2018-03-28T16:10:06.547Z,90.61
2018-03-28T16:12:34.818Z,90.77
2018-03-28T16:15:03.208Z,91.60
2018-03-28T16:17:31.524Z,91.82
2018-03-28T16:20:03.449Z,92.33
2018-03-28T16:22:32.088Z,92.72
2018-03-28T16:25:00.401Z,93.21
2018-03-28T16:27:28.779Z,93.12
2018-03-28T16:29:57.167Z,93.11
2018-03-28T16:32:25.510Z,93.63
2018-03-28T16:34:53.774Z,94.07
2018-03-28T16:37:22.069Z,94.95
2018-03-28T16:39:51.106Z,96.12
2018-03-28T16:42:20.172Z,95.80
2018-03-28T16:44:48.430Z,94.49
2018-03-28T16:47:16.699Z,95.47
2018-03-28T16:49:44.973Z,95.58
2018-03-28T16:52:13.308Z,96.24
2018-03-28T16:54:42.350Z,96.24
2018-03-28T16:57:11.551Z,96.39
2018-03-28T16:59:39.801Z,96.02
2018-03-28T17:02:08.278Z,95.78
2018-03-28T17:04:37.292Z,95.85
2018-03-28T17:07:05.702Z,96.68
2018-03-28T17:09:34.783Z,96.16
2018-03-28T17:12:03.162Z,95.91
2018-03-28T17:14:31.495Z,95.87
2018-03-28T17:16:59.759Z,95.94
2018-03-28T17:19:28.102Z,96.18
2018-03-28T17:21:56.370Z,95.94
2018-03-28T17:24:25.744Z,96.07
2018-03-28T17:26:54.125Z,96.18
2018-03-28T17:29:22.429Z,95.86
2018-03-28T17:31:50.705Z,95.89
2018-03-28T17:34:18.981Z,96.21
2018-03-28T17:36:47.272Z,96.01
2018-03-28T17:39:15.581Z,95.92
2018-03-28T17:41:43.874Z,96.09
2018-03-28T17:44:12.126Z,96.11
2018-03-28T17:46:40.485Z,96.40
2018-03-28T17:49:08.804Z,96.34
2018-03-28T17:51:37.220Z,96.01
2018-03-28T17:54:06.261Z,95.90
2018-03-28T17:56:34.560Z,96.21
2018-03-28T17:59:03.032Z,96.24
2018-03-28T18:01:31.418Z,96.34
2018-03-28T18:03:59.679Z,96.11
2018-03-28T18:06:27.951Z,96.26
2018-03-28T18:08:56.247Z,96.18
2018-03-28T18:11:24.553Z,96.20
2018-03-28T18:13:53.606Z,95.87
2018-03-28T18:16:21.940Z,95.54
2018-03-28T18:18:50.252Z,95.44
2018-03-28T18:21:18.580Z,95.55
2018-03-28T18:23:47.637Z,95.29
2018-03-28T18:26:15.914Z,95.17
2018-03-28T18:28:44.312Z,95.57
2018-03-28T18:31:12.590Z,95.65
2018-03-28T18:33:41.638Z,95.80
2018-03-28T18:36:10.370Z,95.85
2018-03-28T18:38:38.706Z,95.90
2018-03-28T18:41:07.001Z,96.45
2018-03-28T18:43:35.304Z,96.49
2018-03-28T18:46:04.536Z,96.07
2018-03-28T18:48:33.516Z,96.43
2018-03-28T18:51:02.591Z,96.50
2018-03-28T18:53:31.623Z,96.69
2018-03-28T18:55:59.916Z,96.92
2018-03-28T18:58:28.260Z,96.94
2018-03-28T19:00:56.627Z,97.22
2018-03-28T19:03:24.915Z,97.47
2018-03-28T19:08:28.596Z,97.29
2018-03-28T19:10:57.636Z,97.39
2018-03-28T19:13:25.902Z,97.46
2018-03-28T19:15:54.303Z,97.71
2018-03-28T19:18:22.671Z,97.83
2018-03-28T19:20:50.958Z,97.55
2018-03-28T19:23:19.217Z,97.52
2018-03-28T19:25:47.502Z,97.32
2018-03-28T19:28:15.765Z,97.14
2018-03-28T19:30:44.069Z,97.40
2018-03-28T19:33:13.139Z,97.36
2018-03-28T19:35:41.402Z,97.25
2018-03-28T19:38:09.680Z,97.39
2018-03-28T19:40:37.932Z,97.42
2018-03-28T19:43:06.287Z,97.71
2018-03-28T19:45:35.313Z,97.66
2018-03-28T19:48:03.598Z,97.36
2018-03-28T19:50:31.902Z,97.55
2018-03-28T19:53:00.995Z,97.78
2018-03-28T19:55:29.340Z,97.81
2018-03-28T19:57:58.170Z,97.87
2018-03-28T20:00:26.471Z,97.82
2018-03-28T20:02:55.515Z,97.48
2018-03-28T20:05:23.793Z,97.68
2018-03-28T20:07:52.091Z,97.22
2018-03-28T20:10:21.877Z,97.13
2018-03-28T20:12:50.269Z,97.38
2018-03-28T20:15:18.551Z,97.44
2018-03-28T20:17:46.812Z,97.52
2018-03-28T20:20:15.228Z,97.49
2018-03-28T20:22:44.262Z,97.57
2018-03-28T20:25:12.547Z,97.55
2018-03-28T20:27:40.819Z,97.56
2018-03-28T20:30:09.107Z,97.04
2018-03-28T20:32:37.468Z,97.08
2018-03-28T20:35:05.811Z,97.30
2018-03-28T20:37:34.882Z,97.75
2018-03-28T20:40:04.025Z,97.85
2018-03-28T20:42:32.276Z,98.21
2018-03-28T20:45:00.630Z,98.12
2018-03-28T20:47:28.974Z,97.83
2018-03-28T20:49:57.244Z,97.67
2018-03-28T20:52:25.553Z,97.61
2018-03-28T20:54:53.811Z,91.41
2018-03-28T20:57:22.140Z,89.74
2018-03-28T20:59:50.450Z,84.70
2018-03-28T21:02:18.746Z,81.66
2018-03-28T21:04:47.009Z,81.95
2018-03-28T21:07:16.155Z,81.89
2018-03-28T21:09:45.378Z,80.68
2018-03-28T21:12:13.661Z,80.06
2018-03-28T21:14:41.922Z,78.60
2018-03-28T21:17:10.198Z,76.96
2018-03-28T21:19:38.567Z,77.92
2018-03-28T21:22:07.057Z,75.26
2018-03-28T21:24:35.551Z,74.85
2018-03-28T21:27:03.821Z,73.38
2018-03-28T21:29:32.104Z,74.58
2018-03-28T21:32:00.344Z,75.63
2018-03-28T21:34:28.652Z,75.59
2018-03-28T21:36:57.135Z,76.65
2018-03-28T21:39:25.529Z,74.56
2018-03-28T21:41:53.886Z,74.06
2018-03-28T21:44:22.245Z,75.69
2018-03-28T21:46:50.545Z,74.22
2018-03-28T21:49:18.898Z,75.69
2018-03-28T21:51:47.928Z,74.13
2018-03-28T21:54:16.609Z,73.82
2018-03-28T21:56:44.892Z,74.99
2018-03-28T21:59:13.154Z,73.34
2018-03-28T22:01:41.474Z,73.47
2018-03-28T22:04:10.511Z,73.45
2018-03-28T22:06:38.784Z,72.58
2018-03-28T22:09:07.287Z,74.06
2018-03-28T22:11:35.616Z,72.08
2018-03-28T22:14:04.236Z,75.58
2018-03-28T22:16:32.626Z,72.44
2018-03-28T22:19:00.893Z,73.76
2018-03-28T22:21:29.303Z,72.04
2018-03-28T22:23:58.380Z,74.01
2018-03-28T22:26:26.814Z,74.04
2018-03-28T22:28:55.112Z,72.52
2018-03-28T22:31:23.652Z,72.86
2018-03-28T22:33:52.167Z,71.80
2018-03-28T22:36:20.415Z,72.30
2018-03-28T22:38:48.721Z,72.84
2018-03-28T22:41:16.972Z,73.75
2018-03-28T22:43:45.248Z,73.41
2018-03-28T22:46:13.634Z,72.59
2018-03-28T22:48:41.914Z,73.58
2018-03-28T22:51:10.184Z,73.83
2018-03-28T22:53:38.441Z,73.17
2018-03-28T22:56:06.709Z,73.65
2018-03-28T22:58:34.959Z,72.93
2018-03-28T23:01:04.000Z,73.00
2018-03-28T23:03:33.100Z,73.63
2018-03-28T23:06:01.367Z,73.24
2018-03-28T23:08:29.623Z,72.90
2018-03-28T23:10:57.923Z,73.12
2018-03-28T23:13:26.191Z,73.56
2018-03-28T23:15:54.887Z,73.12
2018-03-28T23:18:23.158Z,72.88
2018-03-28T23:20:52.299Z,73.19
2018-03-28T23:23:20.691Z,71.23
2018-03-28T23:25:49.135Z,71.83
2018-03-28T23:28:18.950Z,71.49
2018-03-28T23:30:47.379Z,70.96
2018-03-28T23:33:15.881Z,71.84
2018-03-28T23:35:44.338Z,71.73
2018-03-28T23:38:12.660Z,71.68
2018-03-28T23:40:41.609Z,72.31
2018-03-28T23:43:09.914Z,72.25
2018-03-28T23:45:38.284Z,71.86
2018-03-28T23:48:06.556Z,72.28
2018-03-28T23:50:34.832Z,72.80
2018-03-28T23:53:03.111Z,73.73
2018-03-28T23:55:31.406Z,73.27
2018-03-28T23:57:59.657Z,73.77
